createdAt,value
2023-03-06T00:01:23.055Z,2.80
2023-03-06T00:03:50.008Z,3.00
2023-03-06T00:06:16.871Z,3.00
2023-03-06T00:08:43.661Z,2.90
2023-03-06T00:11:14.776Z,2.90
2023-03-06T00:13:41.703Z,3.00
2023-03-06T00:16:08.830Z,3.00
2023-03-06T00:18:35.803Z,2.90
2023-03-06T00:21:06.292Z,2.80
2023-03-06T00:23:33.189Z,2.90
2023-03-06T00:25:59.936Z,2.80
2023-03-06T00:28:27.210Z,2.70
2023-03-06T00:30:54.031Z,2.90
2023-03-06T00:33:20.916Z,2.90
2023-03-06T00:35:47.737Z,2.80
2023-03-06T00:38:14.832Z,2.70
2023-03-06T00:40:41.595Z,2.80
2023-03-06T00:43:08.521Z,2.80
2023-03-06T00:45:35.526Z,2.80
2023-03-06T00:48:02.519Z,2.80
2023-03-06T00:50:29.296Z,3.00
2023-03-06T00:52:56.077Z,3.00
2023-03-06T00:55:25.129Z,2.90
2023-03-06T00:57:52.063Z,2.80
2023-03-06T01:00:19.107Z,3.00
2023-03-06T01:02:45.924Z,3.00
2023-03-06T01:05:13.361Z,2.80
2023-03-06T01:07:40.184Z,2.80
2023-03-06T01:10:08.216Z,3.00
2023-03-06T01:12:35.227Z,2.90
2023-03-06T01:15:02.191Z,2.90
2023-03-06T01:17:28.995Z,2.90
2023-03-06T01:19:55.853Z,3.00
2023-03-06T01:22:22.640Z,2.90
2023-03-06T01:24:49.527Z,2.80
2023-03-06T01:27:16.379Z,2.80
2023-03-06T01:29:43.881Z,2.90
2023-03-06T01:32:10.742Z,2.90
2023-03-06T01:34:37.527Z,2.90
2023-03-06T01:37:04.416Z,2.80
2023-03-06T01:39:31.674Z,2.90
2023-03-06T01:41:58.535Z,2.80
2023-03-06T01:44:25.507Z,2.80
2023-03-06T01:46:52.291Z,2.70
2023-03-06T01:49:25.295Z,2.90
2023-03-06T01:52:01.298Z,2.90
2023-03-06T01:54:30.109Z,2.90
2023-03-06T01:57:00.403Z,2.90
2023-03-06T01:59:27.650Z,2.80
2023-03-06T02:01:55.327Z,2.90
2023-03-06T02:04:22.309Z,2.80
2023-03-06T02:06:50.797Z,2.70
2023-03-06T02:09:17.853Z,2.70
2023-03-06T02:11:46.230Z,2.80
2023-03-06T02:14:14.905Z,2.70
2023-03-06T02:16:42.267Z,2.80
2023-03-06T02:19:16.450Z,2.70
2023-03-06T02:21:43.447Z,2.70
2023-03-06T02:24:10.171Z,2.80
2023-03-06T02:26:37.637Z,2.80
2023-03-06T02:29:05.202Z,2.70
2023-03-06T02:31:33.106Z,2.70
2023-03-06T02:34:05.090Z,2.60
2023-03-06T02:36:33.587Z,2.70
2023-03-06T02:39:01.010Z,2.80
2023-03-06T02:41:27.851Z,2.60
2023-03-06T02:43:55.097Z,2.60
2023-03-06T02:46:21.905Z,2.70
2023-03-06T02:48:48.837Z,2.70
2023-03-06T02:51:15.836Z,2.70
2023-03-06T02:53:43.722Z,2.50
2023-03-06T02:56:10.628Z,2.50
2023-03-06T02:58:37.544Z,2.60
2023-03-06T03:01:04.889Z,2.60
2023-03-06T03:03:33.336Z,2.70
2023-03-06T03:06:01.072Z,2.70
2023-03-06T03:08:32.436Z,2.60
2023-03-06T03:11:02.468Z,2.70
2023-03-06T03:13:37.614Z,2.70
2023-03-06T03:16:06.991Z,2.60
2023-03-06T03:18:34.462Z,2.70
2023-03-06T03:21:01.707Z,2.70
2023-03-06T03:23:28.547Z,2.60
2023-03-06T03:26:05.674Z,2.60
2023-03-06T03:28:32.560Z,2.60
2023-03-06T03:31:07.378Z,2.50
2023-03-06T03:33:35.069Z,2.60
2023-03-06T03:36:02.820Z,2.40
2023-03-06T03:38:30.466Z,2.40
2023-03-06T03:40:57.320Z,2.40
2023-03-06T03:43:24.342Z,2.50
2023-03-06T03:45:53.180Z,2.60
2023-03-06T03:48:20.675Z,2.60
2023-03-06T03:50:47.552Z,2.60
2023-03-06T03:53:14.648Z,2.60
2023-03-06T03:55:42.198Z,2.50
2023-03-06T03:58:09.095Z,2.50
2023-03-06T04:00:36.100Z,2.50
2023-03-06T04:03:10.244Z,2.50
2023-03-06T04:05:41.276Z,2.40
2023-03-06T04:08:09.793Z,2.50
2023-03-06T04:10:40.730Z,2.40
2023-03-06T04:13:10.149Z,2.50
2023-03-06T04:15:40.528Z,2.70
2023-03-06T04:18:07.744Z,2.60
2023-03-06T04:20:35.183Z,2.50
2023-03-06T04:23:02.521Z,2.50
2023-03-06T04:25:29.409Z,2.60
2023-03-06T04:27:57.856Z,2.60
2023-03-06T04:30:24.811Z,2.50
2023-03-06T04:32:51.909Z,2.40
2023-03-06T04:35:18.908Z,2.50
2023-03-06T04:37:55.182Z,2.50
2023-03-06T04:40:27.409Z,2.50
2023-03-06T04:42:55.471Z,2.50
2023-03-06T04:45:22.505Z,2.50
2023-03-06T04:47:49.545Z,2.50
2023-03-06T04:50:16.767Z,2.50
2023-03-06T04:52:43.879Z,2.60
2023-03-06T04:55:12.538Z,2.60
2023-03-06T04:57:40.214Z,2.50
2023-03-06T05:00:12.173Z,2.60
2023-03-06T05:02:39.035Z,2.50
2023-03-06T05:05:05.993Z,2.40
2023-03-06T05:07:32.841Z,2.40
2023-03-06T05:10:00.522Z,2.40
2023-03-06T05:12:27.377Z,2.40
2023-03-06T05:14:54.310Z,2.40
2023-03-06T05:17:21.155Z,2.40
2023-03-06T05:19:47.917Z,2.40
2023-03-06T05:22:14.828Z,2.40
2023-03-06T05:24:41.903Z,2.30
2023-03-06T05:27:08.713Z,2.50
2023-03-06T05:29:35.718Z,2.50
2023-03-06T05:32:02.612Z,2.40
2023-03-06T05:34:29.551Z,2.50
2023-03-06T05:36:56.672Z,2.40
2023-03-06T05:39:23.513Z,2.40
2023-03-06T05:41:50.274Z,2.40
2023-03-06T05:44:17.404Z,2.40
2023-03-06T05:46:44.182Z,2.40
2023-03-06T05:49:11.092Z,2.50
2023-03-06T05:51:38.013Z,2.40
2023-03-06T05:54:04.831Z,2.40
2023-03-06T05:56:31.616Z,2.40
2023-03-06T05:58:58.432Z,2.50
2023-03-06T06:01:25.458Z,2.40
2023-03-06T06:03:52.465Z,2.50
2023-03-06T06:06:19.336Z,2.50
2023-03-06T06:08:46.244Z,2.60
2023-03-06T06:11:13.463Z,2.40
2023-03-06T06:13:40.444Z,2.40
2023-03-06T06:16:16.418Z,2.50
2023-03-06T06:18:43.581Z,2.40
2023-03-06T06:21:11.190Z,2.50
2023-03-06T06:23:38.092Z,2.50
2023-03-06T06:26:05.616Z,2.60
2023-03-06T06:28:33.428Z,2.50
2023-03-06T06:31:00.241Z,2.50
2023-03-06T06:33:27.147Z,2.70
2023-03-06T06:35:54.009Z,2.70
2023-03-06T06:38:20.820Z,2.70
2023-03-06T06:41:11.660Z,2.80
2023-03-06T06:43:34.479Z,2.80
2023-03-06T06:46:24.274Z,2.70
2023-03-06T06:48:49.501Z,2.60
2023-03-06T06:51:17.049Z,2.70
2023-03-06T06:53:44.625Z,2.70
2023-03-06T06:56:11.496Z,2.70
2023-03-06T06:58:38.405Z,2.70
2023-03-06T07:01:09.320Z,2.80
2023-03-06T07:03:36.164Z,2.80
2023-03-06T07:06:03.237Z,2.80
2023-03-06T07:08:30.180Z,2.80
2023-03-06T07:10:57.054Z,2.80
2023-03-06T07:13:24.002Z,2.90
2023-03-06T07:15:50.785Z,2.90
2023-03-06T07:18:17.755Z,2.90
2023-03-06T07:20:44.588Z,2.80
2023-03-06T07:23:12.589Z,2.90
2023-03-06T07:25:39.833Z,2.90
2023-03-06T07:28:06.785Z,2.80
2023-03-06T07:30:33.734Z,2.90
2023-03-06T07:33:00.610Z,2.90
2023-03-06T07:35:27.498Z,3.00
2023-03-06T07:37:54.463Z,3.10
2023-03-06T07:40:21.628Z,3.00
2023-03-06T07:42:48.478Z,2.90
2023-03-06T07:45:18.784Z,2.90
2023-03-06T07:47:45.709Z,3.00
2023-03-06T07:50:12.847Z,3.00
2023-03-06T07:52:39.742Z,3.00
2023-03-06T07:55:06.896Z,3.10
2023-03-06T07:57:33.750Z,3.10
2023-03-06T08:00:00.826Z,3.10
2023-03-06T08:02:27.740Z,3.10
2023-03-06T08:04:55.196Z,3.10
2023-03-06T08:07:22.266Z,3.10
2023-03-06T08:09:49.580Z,3.10
2023-03-06T08:12:16.789Z,3.10
2023-03-06T08:14:43.618Z,3.20
2023-03-06T08:17:10.507Z,3.10
2023-03-06T08:19:37.340Z,3.20
2023-03-06T08:22:07.237Z,3.30
2023-03-06T08:24:34.618Z,3.50
2023-03-06T08:27:01.484Z,3.60
2023-03-06T08:29:28.270Z,3.60
2023-03-06T08:31:55.152Z,3.70
2023-03-06T08:34:24.180Z,3.70
2023-03-06T08:36:51.625Z,3.70
2023-03-06T08:39:18.554Z,3.50
2023-03-06T08:41:45.414Z,3.40
2023-03-06T08:44:13.665Z,3.50
2023-03-06T08:46:40.869Z,3.60
2023-03-06T08:49:07.674Z,3.70
2023-03-06T08:51:34.541Z,3.70
2023-03-06T08:54:01.509Z,3.60
2023-03-06T08:56:32.884Z,3.50
2023-03-06T08:59:00.919Z,3.60
2023-03-06T09:01:31.619Z,3.70
2023-03-06T09:04:00.042Z,3.80
2023-03-06T09:06:27.363Z,3.90
2023-03-06T09:08:54.942Z,3.80
2023-03-06T09:11:22.655Z,3.80
2023-03-06T09:13:49.740Z,3.90
2023-03-06T09:16:16.634Z,3.90
2023-03-06T09:18:43.540Z,3.90
2023-03-06T09:21:10.688Z,3.90
2023-03-06T09:23:39.496Z,3.90
2023-03-06T09:26:07.049Z,3.90
2023-03-06T09:28:39.137Z,3.80
2023-03-06T09:31:10.325Z,3.90
2023-03-06T09:33:37.373Z,4.10
2023-03-06T09:36:04.543Z,4.40
2023-03-06T09:38:31.312Z,4.70
2023-03-06T09:40:58.204Z,4.80
2023-03-06T09:43:32.902Z,5.00
2023-03-06T09:45:59.932Z,5.30
2023-03-06T09:48:41.733Z,5.80
2023-03-06T09:51:12.569Z,6.60
2023-03-06T09:54:01.309Z,7.10
2023-03-06T09:56:31.931Z,7.10
2023-03-06T09:59:22.180Z,7.50
2023-03-06T10:02:10.910Z,7.80
2023-03-06T10:04:40.549Z,7.70
2023-03-06T10:07:13.579Z,7.30
2023-03-06T10:09:43.515Z,6.90
2023-03-06T10:12:16.457Z,6.40
2023-03-06T10:14:49.418Z,5.70
2023-03-06T10:17:21.008Z,5.40
2023-03-06T10:19:48.269Z,5.20
2023-03-06T10:22:41.499Z,5.20
2023-03-06T10:25:14.448Z,5.10
2023-03-06T10:27:56.634Z,5.20
2023-03-06T10:30:38.725Z,5.20
2023-03-06T10:33:09.030Z,5.20
2023-03-06T10:35:50.987Z,5.30
2023-03-06T10:38:20.761Z,5.10
2023-03-06T10:40:54.449Z,5.20
2023-03-06T10:43:22.508Z,5.30
2023-03-06T10:45:51.238Z,5.10
2023-03-06T10:48:19.982Z,5.20
2023-03-06T10:50:46.862Z,5.30
2023-03-06T10:53:21.458Z,5.40
2023-03-06T10:55:58.867Z,5.50
2023-03-06T10:58:30.301Z,5.40
2023-03-06T11:01:01.549Z,5.40
2023-03-06T11:03:28.905Z,5.50
2023-03-06T11:06:04.685Z,5.40
2023-03-06T11:08:32.373Z,5.50
2023-03-06T11:11:03.868Z,5.80
2023-03-06T11:13:32.539Z,6.00
2023-03-06T11:16:04.457Z,6.20
2023-03-06T11:18:35.175Z,6.60
2023-03-06T11:21:03.744Z,6.70
2023-03-06T11:23:39.661Z,6.70
2023-03-06T11:26:09.596Z,6.60
2023-03-06T11:28:46.126Z,6.60
2023-03-06T11:31:22.254Z,6.30
2023-03-06T11:33:52.825Z,6.40
2023-03-06T11:36:27.976Z,6.60
2023-03-06T11:38:55.042Z,6.30
2023-03-06T11:41:34.206Z,5.90
2023-03-06T11:44:05.201Z,6.10
2023-03-06T11:46:37.264Z,6.10
2023-03-06T11:49:21.225Z,6.20
2023-03-06T11:52:00.298Z,6.20
2023-03-06T11:54:27.316Z,6.30
2023-03-06T11:56:54.045Z,6.40
2023-03-06T11:59:50.940Z,6.40
2023-03-06T12:02:20.634Z,6.30
2023-03-06T12:05:17.025Z,6.20
2023-03-06T12:07:43.814Z,6.00
2023-03-06T12:10:23.678Z,5.90
2023-03-06T12:13:16.345Z,6.00
2023-03-06T12:15:46.194Z,6.00
2023-03-06T12:18:12.938Z,6.30
2023-03-06T12:20:39.819Z,6.50
2023-03-06T12:23:32.997Z,6.70
2023-03-06T12:26:06.282Z,6.70
2023-03-06T12:28:59.826Z,6.40
2023-03-06T12:31:34.319Z,6.10
2023-03-06T12:34:01.283Z,5.70
2023-03-06T12:36:48.440Z,5.40
2023-03-06T12:39:44.795Z,5.40
2023-03-06T12:42:22.616Z,5.60
2023-03-06T12:45:09.422Z,5.50
2023-03-06T12:47:41.350Z,5.40
2023-03-06T12:50:23.400Z,5.40
2023-03-06T12:52:51.256Z,5.30
2023-03-06T12:55:23.204Z,5.00
2023-03-06T12:57:51.504Z,4.90
2023-03-06T13:00:34.366Z,4.80
2023-03-06T13:03:11.509Z,4.60
2023-03-06T13:06:04.217Z,4.60
2023-03-06T13:08:40.041Z,4.70
2023-03-06T13:11:25.053Z,4.70
2023-03-06T13:13:52.341Z,4.80
2023-03-06T13:16:29.179Z,4.80
2023-03-06T13:19:31.347Z,4.80
2023-03-06T13:21:58.241Z,4.90
2023-03-06T13:24:29.187Z,4.90
2023-03-06T13:26:57.743Z,4.90
2023-03-06T13:29:36.841Z,4.90
2023-03-06T13:32:03.941Z,4.70
2023-03-06T13:34:46.894Z,4.90
2023-03-06T13:37:13.829Z,5.00
2023-03-06T13:40:07.171Z,4.90
2023-03-06T13:42:37.195Z,4.80
2023-03-06T13:45:13.139Z,4.50
2023-03-06T13:50:46.273Z,4.30
2023-03-06T13:53:38.680Z,4.40
2023-03-06T13:56:31.696Z,4.30
2023-03-06T13:59:13.819Z,4.20
2023-03-06T14:01:59.225Z,4.40
2023-03-06T14:04:45.228Z,4.50
2023-03-06T14:07:20.771Z,4.70
2023-03-06T14:09:48.638Z,4.80
2023-03-06T14:12:26.723Z,4.60
2023-03-06T14:15:01.838Z,4.60
2023-03-06T14:17:30.510Z,4.60
2023-03-06T14:19:59.983Z,4.50
2023-03-06T14:22:26.913Z,4.40
2023-03-06T14:25:02.884Z,4.40
2023-03-06T14:28:09.166Z,4.30
2023-03-06T14:30:48.225Z,4.30
2023-03-06T14:33:21.748Z,4.40
2023-03-06T14:35:51.401Z,4.50
2023-03-06T14:38:18.261Z,4.70
2023-03-06T14:40:45.566Z,5.00
2023-03-06T14:43:19.255Z,4.90
2023-03-06T14:45:55.239Z,4.80
2023-03-06T14:48:22.751Z,4.70
2023-03-06T14:50:50.813Z,4.70
2023-03-06T14:53:20.879Z,4.80
2023-03-06T14:55:50.217Z,5.00
2023-03-06T14:58:46.201Z,5.30
2023-03-06T15:01:13.613Z,5.40
2023-03-06T15:03:43.553Z,5.40
2023-03-06T15:06:20.930Z,5.30
2023-03-06T15:08:51.983Z,5.20
2023-03-06T15:11:18.879Z,5.10
2023-03-06T15:13:59.522Z,4.90
2023-03-06T15:16:30.179Z,4.80
2023-03-06T15:19:01.733Z,4.70
2023-03-06T15:21:36.040Z,4.80
2023-03-06T15:24:22.964Z,4.70
2023-03-06T15:26:54.235Z,4.60
2023-03-06T15:29:23.038Z,4.50
2023-03-06T15:31:50.295Z,4.50
2023-03-06T15:34:24.158Z,4.50
2023-03-06T15:36:51.418Z,4.50
2023-03-06T15:39:35.490Z,4.50
2023-03-06T15:42:18.054Z,4.40
2023-03-06T15:44:49.841Z,4.40
2023-03-06T15:47:16.788Z,4.40
2023-03-06T15:49:43.609Z,4.40
2023-03-06T15:52:10.688Z,4.40
2023-03-06T15:54:37.576Z,4.40
2023-03-06T15:57:05.400Z,4.40
2023-03-06T15:59:36.155Z,4.40
2023-03-06T16:02:04.499Z,4.50
2023-03-06T16:04:31.309Z,4.40
2023-03-06T16:06:58.327Z,4.40
2023-03-06T16:09:25.212Z,4.50
2023-03-06T16:11:52.057Z,4.50
2023-03-06T16:14:21.143Z,4.50
2023-03-06T16:16:49.125Z,4.50
2023-03-06T16:19:25.909Z,4.40
2023-03-06T16:21:53.674Z,4.40
2023-03-06T16:24:20.453Z,4.30
2023-03-06T16:26:48.499Z,4.30
2023-03-06T16:29:16.418Z,4.30
2023-03-06T16:31:43.293Z,4.30
2023-03-06T16:34:10.227Z,4.30
2023-03-06T16:36:37.151Z,4.30
2023-03-06T16:39:04.387Z,4.30
2023-03-06T16:41:31.317Z,4.30
2023-03-06T16:43:58.166Z,4.20
2023-03-06T16:46:25.398Z,4.20
2023-03-06T16:49:03.649Z,4.00
2023-03-06T16:51:30.876Z,4.00
2023-03-06T16:53:57.636Z,4.00
2023-03-06T16:56:24.439Z,4.00
2023-03-06T16:58:51.220Z,4.00
2023-03-06T17:01:19.196Z,4.00
2023-03-06T17:03:46.056Z,4.00
2023-03-06T17:06:22.590Z,4.10
2023-03-06T17:08:50.299Z,4.00
2023-03-06T17:11:17.699Z,4.00
2023-03-06T17:13:44.555Z,4.00
2023-03-06T17:16:12.896Z,4.00
2023-03-06T17:18:39.812Z,4.00
2023-03-06T17:21:07.623Z,3.80
2023-03-06T17:23:34.467Z,3.80
2023-03-06T17:26:10.483Z,3.80
2023-03-06T17:28:37.610Z,3.80
2023-03-06T17:31:34.018Z,3.90
2023-03-06T17:34:00.857Z,3.80
2023-03-06T17:36:28.310Z,3.90
2023-03-06T17:38:56.377Z,3.80
2023-03-06T17:41:24.603Z,3.80
2023-03-06T17:43:52.124Z,3.70
2023-03-06T17:46:18.997Z,3.70
2023-03-06T17:48:46.167Z,3.90
2023-03-06T17:51:13.154Z,3.90
2023-03-06T17:53:40.075Z,3.90
2023-03-06T17:56:08.330Z,3.90
2023-03-06T17:58:35.544Z,3.80
2023-03-06T18:01:11.567Z,3.80
2023-03-06T18:03:38.808Z,3.80
2023-03-06T18:06:09.339Z,3.80
2023-03-06T18:08:36.941Z,3.70
2023-03-06T18:11:05.160Z,3.70
2023-03-06T18:13:32.456Z,3.80
2023-03-06T18:15:59.941Z,3.70
2023-03-06T18:18:27.287Z,3.60
2023-03-06T18:20:55.159Z,3.50
2023-03-06T18:23:22.387Z,3.60
2023-03-06T18:25:49.873Z,3.70
2023-03-06T18:28:16.883Z,3.60
2023-03-06T18:30:43.661Z,3.60
2023-03-06T18:33:10.585Z,3.50
2023-03-06T18:35:37.462Z,3.50
2023-03-06T18:38:04.327Z,3.70
2023-03-06T18:40:31.138Z,3.60
2023-03-06T18:42:58.509Z,3.50
2023-03-06T18:45:25.337Z,3.50
2023-03-06T18:47:52.309Z,3.40
2023-03-06T18:50:19.071Z,3.50
2023-03-06T18:52:46.137Z,3.60
2023-03-06T18:55:12.999Z,3.40
2023-03-06T18:57:39.940Z,3.50
2023-03-06T19:00:07.194Z,3.50
2023-03-06T19:02:34.032Z,3.50
2023-03-06T19:05:00.805Z,3.60
2023-03-06T19:07:27.692Z,3.60
2023-03-06T19:09:54.509Z,3.50
2023-03-06T19:12:21.367Z,3.60
2023-03-06T19:14:48.134Z,3.50
2023-03-06T19:17:14.925Z,3.40
2023-03-06T19:19:41.687Z,3.40
2023-03-06T19:22:08.536Z,3.30
2023-03-06T19:24:35.330Z,3.40
2023-03-06T19:27:02.151Z,3.30
2023-03-06T19:29:28.941Z,3.30
2023-03-06T19:31:57.499Z,3.40
2023-03-06T19:34:24.323Z,3.40
2023-03-06T19:36:51.423Z,3.50
2023-03-06T19:39:18.204Z,3.40
2023-03-06T19:41:46.088Z,3.40
2023-03-06T19:44:13.152Z,3.40
2023-03-06T19:46:40.746Z,3.40
2023-03-06T19:49:12.111Z,3.40
2023-03-06T19:51:39.074Z,3.40
2023-03-06T19:54:05.971Z,3.50
2023-03-06T19:56:33.696Z,3.40
2023-03-06T19:59:00.709Z,3.40
2023-03-06T20:01:27.783Z,3.30
2023-03-06T20:03:58.954Z,3.40
2023-03-06T20:06:27.705Z,3.30
2023-03-06T20:08:54.564Z,3.30
2023-03-06T20:11:26.065Z,3.40
2023-03-06T20:13:53.537Z,3.40
2023-03-06T20:16:20.689Z,3.30
2023-03-06T20:18:47.596Z,3.30
2023-03-06T20:21:14.900Z,3.20
2023-03-06T20:23:42.212Z,3.20
2023-03-06T20:26:10.755Z,3.20
2023-03-06T20:28:39.227Z,3.30
2023-03-06T20:31:16.850Z,3.20
2023-03-06T20:33:44.804Z,3.30
2023-03-06T20:36:12.613Z,3.20
2023-03-06T20:38:39.447Z,3.20
2023-03-06T20:41:06.386Z,3.30
2023-03-06T20:43:33.274Z,3.30
2023-03-06T20:46:02.257Z,3.30
2023-03-06T20:48:29.703Z,3.20
2023-03-06T20:51:03.732Z,3.10
2023-03-06T20:53:31.096Z,3.10
2023-03-06T20:55:58.016Z,3.10
2023-03-06T20:58:28.604Z,3.10
2023-03-06T21:00:56.019Z,3.10
2023-03-06T21:03:22.928Z,3.20
2023-03-06T21:05:49.967Z,3.20
2023-03-06T21:08:16.918Z,3.10
2023-03-06T21:10:46.903Z,3.10
2023-03-06T21:13:14.284Z,3.10
2023-03-06T21:15:41.993Z,3.00
2023-03-06T21:18:09.349Z,3.10
2023-03-06T21:20:39.330Z,3.20
2023-03-06T21:23:07.013Z,3.10
2023-03-06T21:25:33.980Z,3.10
2023-03-06T21:28:01.025Z,3.10
2023-03-06T21:30:28.471Z,3.10
2023-03-06T21:32:55.552Z,3.10
2023-03-06T21:35:22.683Z,3.10
2023-03-06T21:37:49.548Z,3.10
2023-03-06T21:40:16.408Z,3.10
2023-03-06T21:42:43.185Z,3.30
2023-03-06T21:45:10.181Z,3.30
2023-03-06T21:47:38.896Z,3.20
2023-03-06T21:50:06.517Z,3.20
2023-03-06T21:52:33.385Z,3.20
2023-03-06T21:55:00.289Z,3.20
2023-03-06T21:57:27.160Z,3.30
2023-03-06T21:59:53.917Z,3.30
2023-03-06T22:02:20.863Z,3.30
2023-03-06T22:04:52.522Z,3.30
2023-03-06T22:07:20.286Z,3.30
2023-03-06T22:09:47.407Z,3.20
2023-03-06T22:12:14.525Z,3.30
2023-03-06T22:14:43.358Z,3.30
2023-03-06T22:17:10.415Z,3.20
2023-03-06T22:19:37.372Z,3.30
2023-03-06T22:22:04.613Z,3.10
2023-03-06T22:24:31.995Z,3.20
2023-03-06T22:26:58.821Z,3.20
2023-03-06T22:29:25.939Z,3.00
2023-03-06T22:31:53.048Z,3.00
2023-03-06T22:34:19.940Z,3.00
2023-03-06T22:36:47.138Z,2.80
2023-03-06T22:39:14.099Z,2.90
2023-03-06T22:41:41.172Z,2.90
2023-03-06T22:44:07.982Z,2.90
2023-03-06T22:46:35.221Z,2.90
2023-03-06T22:49:02.252Z,2.80
2023-03-06T22:51:29.746Z,2.80
2023-03-06T22:53:56.576Z,2.90
2023-03-06T22:56:23.911Z,2.90
2023-03-06T22:58:50.983Z,2.90
2023-03-06T23:01:19.386Z,3.00
2023-03-06T23:03:47.266Z,2.90
2023-03-06T23:06:24.355Z,2.90
2023-03-06T23:08:52.939Z,2.80
2023-03-06T23:11:20.780Z,2.80
2023-03-06T23:14:06.279Z,2.90
2023-03-06T23:16:51.984Z,2.90
2023-03-06T23:19:38.075Z,3.00
2023-03-06T23:22:23.717Z,3.10
2023-03-06T23:25:09.338Z,3.10
2023-03-06T23:27:36.469Z,3.10
2023-03-06T23:30:06.566Z,3.10
2023-03-06T23:32:33.702Z,3.20
2023-03-06T23:35:00.802Z,3.20
2023-03-06T23:37:27.839Z,3.20
2023-03-06T23:39:55.037Z,3.20
2023-03-06T23:42:22.665Z,3.20
2023-03-06T23:44:49.541Z,3.30
2023-03-06T23:47:17.266Z,3.20
2023-03-06T23:49:44.256Z,3.30
2023-03-06T23:52:11.108Z,3.30
2023-03-06T23:54:38.035Z,2.60
2023-03-06T23:57:04.901Z,3.20
2023-03-06T23:59:31.901Z,3.20
